Terminal Aerodrome Forecast
Issued by NWS

Home | Current Version | Previous Version | Text Only | Print | Product List | Glossary On
Versions: 1 2 3 4 5 6 7 8 9 10 11 12 13 14
000
FTUS42 KTAE 300520
TAFECP
TAF
KECP 300520Z 3006/3106 28003KT P6SM SCT200
     FM301400 33004KT P6SM FEW030
     FM301800 24009KT P6SM VCTS SCT050CB
     FM310000 20003KT P6SM SCT250=

USA.gov is the U.S. government's official web portal to all federal, state and local government web resources and services.